Tiempo atmosférico en la estación meteorológica de La Riba de Escalote, Soria (1042 m.)



Fecha
DESCASC
Temp. máxima en grados centígrados (hora)
DESCASC
Temp. mínima en grados centígrados (hora)
DESCASC
Temp. media en grados centígrados
DESCASC
Racha de viento máxima en m/sg (hora)
DESCASC
Velocidad máxima media en intervalos de 10 minutos(hora)
DESCASC
Precipitaciones diarias en mm
DESCASC
Precipitaciones de 00:00 a 06:00 en mm
DESCASC
Precipitaciones de 06:00 a 12:00 en mm
DESCASC
Precipitaciones de 12:00 a 18:00 en mm
DESCASC
Precipitaciones de 18:00 a 24:00 en mm
DESCASC
26-03-2020 9.5 (15:30) -2.3 (07:00) 3.6 12.78 (14:10) 8.61 (14:10) 0 0 0 0 0
25-03-2020 13.3 (17:00) 0.9 (07:10) 7.1 16.67 (17:10) 13.89 (17:10) 0.6 0 0 0.6 0
24-03-2020 9.7 (15:30) 2.8 (23:59) 6.2 12.22 (11:50) 9.17 (12:50) 0 0 0 0 0
23-03-2020 10.3 (16:20) 5.1 (06:00) 7.7 12.22 (15:00) 9.72 (15:00) 0 0 0 0 0
22-03-2020 11.3 (15:00) 4.7 (04:40) 8 13.61 (16:50) 10.28 (16:50) 2 1.8 0.2 0 0
21-03-2020 9.2 (14:10) 5.6 (00:00) 7.4 9.17 (11:30) 6.67 (11:30) 0 0 0 0 0
20-03-2020 10.2 (17:00) 5.9 (00:00) 8 8.61 (15:50) 5.83 (14:30) 0.4 0.4 0 0 0
19-03-2020 13.9 (16:10) 4.3 (00:00) 9.1 8.61 (15:10) 6.94 (19:20) 0 0 0 0 0
18-03-2020 14 (14:40) 6.3 (00:00) 10.2 8.33 (02:00) 5.83 (11:50) 0 0 0 0 0
17-03-2020 9 (17:00) 4.5 (00:00) 6.8 18.33 (03:20) 14.44 (03:20) 3.8 1.8 1.8 0.2 0
16-03-2020 7.4 (00:40) 0.1 (00:00) 3.8 16.67 (23:30) 12.78 (23:30) 39.6 20.2 2.6 9.2 7.6
15-03-2020 17.2 (14:50) 1.4 (00:00) 9.3 16.39 (18:00) 11.67 (17:50) 7 0 0 0 7
14-03-2020 17.4 (17:00) 0.6 (00:00) 9 5.56 (15:40) 3.06 (15:50) 0 0 0 0 0
13-03-2020 16.6 (15:50) 6.5 (05:10) 11.6 8.89 (11:50) 6.67 (10:20) 0 0 0 0 0
12-03-2020 23.6 (14:50) 7.9 (00:00) 15.8 12.78 (15:10) 8.61 (14:00) 0 0 0 0 0
11-03-2020 23 (16:30) 3.5 (00:00) 13.3 10.83 (15:20) 8.33 (15:20) 0 0 0 0 0
10-03-2020 19.3 (16:50) 4.1 (00:00) 11.7 9.72 (11:40) 6.67 (15:00) 0 0 0 0 0
09-03-2020 11.4 (16:20) 3.7 (00:00) 7.5 15.56 (15:00) 10.28 (02:20) 0 0 0 0 0
08-03-2020 12.8 (14:50) -1.2 (-00:0) 5.8 13.06 (11:40) 9.72 (11:40) 0 0 0 0 0
07-03-2020 10.6 (15:10) 0.5 (00:00) 5.6 14.44 (17:30) 10.83 (17:30) 0 0 0 0 0
06-03-2020 6 (17:20) 1.8 (00:00) 3.9 21.94 (12:10) 15.83 (12:20) 0.2 0.2 0 0 0
05-03-2020 10.2 (16:10) 4.4 (00:00) 7.3 26.11 (11:50) 17.22 (13:00) 1.8 0 1.8 0 0
04-03-2020 11.6 (16:50) 8.3 (23:50) 10 20 (01:40) 15.28 (01:30) 0.2 0 0.2 0 0
03-03-2020 -- (--) -- (--) -- -- (--) -- (--) -- -- -- -- 0
02-03-2020 -- (--) -- (--) -- -- (--) -- (--) -- 3.6 2.2 -- --
01-03-2020 13 (14:50) 5.8 (00:00) 9.4 19.44 (12:30) 13.89 (23:59) 1 0 0 0 1
29-02-2020 10.8 (16:10) 5.2 (00:00) 8 18.89 (07:50) 14.17 (14:00) 0 0 0 0 0
28-02-2020 16.9 (15:20) 2.5 (00:00) 9.7 12.22 (01:10) 8.89 (01:20) 0 0 0 0 0

Gráficas

Temp. máximas Temp. mínimas Temp. medias Precipitaciones Rachas de viento máximas Velocidades máximas media en intervalos de 10 minutos

Datos horarios

Fecha y hora oficial Temperatura (ºC) Velocidad del viento (km/h) Dirección del viento Racha (km/h) Dirección de racha Precipitación (mm) Presión (hPa) Tendencia (hPa) Humedad (%)
2020-03-28 23:00:00 4.8 0 Calma 4 Sudeste 0 -- -- 67
2020-03-28 22:00:00 6.4 0 Calma 5 Oeste 0 -- -- 62
2020-03-28 21:00:00 7.6 4 Este 13 Sudeste 0 -- -- 57
2020-03-28 20:00:00 9.1 13 Sudeste 15 Sudeste 0 -- -- 52
2020-03-28 19:00:00 11.2 11 Sudeste 20 Sudeste 0 -- -- 46
2020-03-28 18:00:00 12.4 7 Este 27 Sudeste 0 -- -- 42
2020-03-28 17:00:00 12.6 15 Sudeste 28 Este 0 -- -- 39
2020-03-28 16:00:00 12.5 10 Nordeste 28 Este 0 -- -- 39
2020-03-28 15:00:00 12.9 7 Sur 23 Sudeste 0 -- -- 42
2020-03-28 14:00:00 11.4 15 Este 28 Este 0 -- -- 43
2020-03-28 13:00:00 11.1 13 Este 24 Este 0 -- -- 45
2020-03-28 12:00:00 10 8 Sudeste 21 Sudeste 0 -- -- 49
2020-03-28 11:00:00 8.2 9 Este 18 Sudeste 0 -- -- 49
2020-03-28 10:00:00 6 3 Este 6 Este 0 -- -- 72
2020-03-28 09:00:00 0.1 0 Calma 3 Este 0 -- -- 89
2020-03-28 08:00:00 -2.7 0 Calma 3 Sudeste 0 -- -- 93
2020-03-28 07:00:00 -3.8 0 Calma 2 Sudeste 0 -- -- 90
2020-03-28 06:00:00 -3.3 0 Calma 2 Sudeste 0 -- -- 89
2020-03-28 05:00:00 -3 0 Calma 4 Este 0 -- -- 87
2020-03-28 04:00:00 -2.1 0 Calma 2 Oeste 0 -- -- 85
2020-03-28 03:00:00 -1.7 0 Calma 3 Sur 0 -- -- 82
2020-03-28 02:00:00 -0.9 0 Calma 3 Oeste 0 -- -- 80
2020-03-28 01:00:00 -0.4 0 Calma 8 Este 0 -- -- 79
2020-03-28 00:00:00 0.7 0 Calma 5 Sudeste 0 -- -- 71
2020-03-27 23:00:00 1.9 4 Sudeste 8 Sudeste 0 -- -- 66
2020-03-27 22:00:00 3.3 0 Calma 11 Este 0 -- -- 58
2020-03-27 21:00:00 3.9 10 Sudeste 15 Sudeste 0 -- -- 55
2020-03-27 20:00:00 5.4 12 Este 22 Este 0 -- -- 48
2020-03-27 19:00:00 7.6 18 Este 29 Sudeste 0 -- -- 38
2020-03-27 18:00:00 8.3 23 Este 36 Este 0 -- -- 34
2020-03-27 17:00:00 8.6 23 Este 39 Sudeste 0 -- -- 32
2020-03-27 16:00:00 8.7 24 Este 37 Sudeste 0 -- -- 34
2020-03-27 15:00:00 8.5 21 Sudeste 39 Este 0 -- -- 36
2020-03-27 14:00:00 7.7 24 Este 35 Este 0 -- -- 44
2020-03-27 13:00:00 6.7 21 Este 36 Este 0 -- -- 52
2020-03-27 12:00:00 5.6 21 Este 32 Sudeste 0 -- -- 54
2020-03-27 11:00:00 3.8 21 Este 32 Este 0 -- -- 64
2020-03-27 10:00:00 2.5 21 Este 28 Este 0 -- -- 68
2020-03-27 09:00:00 1.2 12 Este 23 Este 0 -- -- 76
2020-03-27 08:00:00 -1.5 4 Sudeste 11 Este 0 -- -- 85
2020-03-27 07:00:00 -1.2 4 Este 11 Este 0 -- -- 80
2020-03-27 06:00:00 -1.4 3 Este 9 Este 0 -- -- 79
2020-03-27 05:00:00 -1.3 2 Este 12 Nordeste 0 -- -- 74
2020-03-27 04:00:00 -0.6 3 Este 13 Este 0 -- -- 75
2020-03-27 03:00:00 0 8 Este 27 Este 0 -- -- 73
2020-03-27 02:00:00 0.6 21 Este 38 Este 0 -- -- 68
2020-03-27 01:00:00 1.2 30 Este 40 Este 0 -- -- 67
2020-03-27 00:00:00 1.6 24 Este 30 Este 0 -- -- 67
2020-03-26 23:00:00 1.5 6 Este 12 Este 0 -- -- 68
2020-03-26 22:00:00 2 4 Sudeste 18 Nordeste 0 -- -- 63
2020-03-26 21:00:00 3 10 Nordeste 23 Nordeste 0 -- -- 59
2020-03-26 20:00:00 4.8 12 Nordeste 44 Noroeste 0 -- -- 53
2020-03-26 19:00:00 7.2 18 Noroeste 32 Noroeste 0 -- -- 50
2020-03-26 18:00:00 8.7 18 Noroeste 40 Oeste 0 -- -- 45
2020-03-26 17:00:00 9 25 Noroeste 38 Noroeste 0 -- -- 47
2020-03-26 16:00:00 9.1 23 Noroeste 38 Oeste 0 -- -- 45
2020-03-26 15:00:00 9.4 19 Norte 46 Norte 0 -- -- 46
2020-03-26 14:00:00 8.9 24 Norte 37 Noroeste 0 -- -- 49
2020-03-26 13:00:00 7.7 24 Noroeste 37 Oeste 0 -- -- 52
2020-03-26 12:00:00 7.4 27 Noroeste 38 Noroeste 0 -- -- 59
2020-03-26 11:00:00 5.6 27 Noroeste 36 Noroeste 0 -- -- 65
2020-03-26 10:00:00 3.9 24 Noroeste 33 Noroeste 0 -- -- 70
2020-03-26 09:00:00 1.8 6 Noroeste 15 Noroeste 0 -- -- 71
2020-03-26 08:00:00 -1.2 2 Noroeste 11 Oeste 0 -- -- 76
2020-03-26 07:00:00 -2.3 3 Oeste 10 Oeste 0 -- -- 69
2020-03-26 06:00:00 -1.5 5 Oeste 16 Oeste 0 -- -- 66
2020-03-26 05:00:00 -1.5 11 Oeste 15 Oeste 0 -- -- 71
2020-03-26 04:00:00 -0.4 3 Noroeste 8 Noroeste 0 -- -- 69
2020-03-26 03:00:00 0 0 Calma 10 Oeste 0 -- -- 78
2020-03-26 02:00:00 0.7 9 Oeste 12 Oeste 0 -- -- 93
2020-03-26 01:00:00 1.3 3 Oeste 5 Oeste 0 -- -- 93
2020-03-26 00:00:00 2.3 0 Calma 6 Este 0 -- -- 92
2020-03-25 23:00:00 3.3 2 Oeste 5 Oeste 0 -- -- 89
2020-03-25 22:00:00 4.6 3 Sudeste 4 Sudeste 0 -- -- 83
2020-03-25 21:00:00 5.7 2 Oeste 11 Sudeste 0 -- -- 81
2020-03-25 20:00:00 6.5 13 Sudeste 27 Sudeste 0 -- -- 79
2020-03-25 19:00:00 8.6 17 Sudeste 28 Este 0 -- -- 74
2020-03-25 18:00:00 9.1 21 Este 60 Este 0 -- -- 71
2020-03-25 17:00:00 13.3 22 Noroeste 37 Norte 0 -- -- 53
2020-03-25 16:00:00 9.6 7 Noroeste 25 Norte 0.4 -- -- 67
2020-03-25 15:00:00 9.9 8 Noroeste 30 Noroeste 0.2 -- -- 66
2020-03-25 14:00:00 11.4 5 Noroeste 18 Nordeste 0 -- -- 57
2020-03-25 13:00:00 10.8 10 Nordeste 22 Norte 0 -- -- 60
2020-03-25 12:00:00 10.1 15 Noroeste 28 Norte 0 -- -- 62
2020-03-25 11:00:00 8.4 12 Noroeste 20 Noroeste 0 -- -- 73
2020-03-25 10:00:00 6.8 2 Noroeste 6 Norte 0 -- -- 82
2020-03-25 09:00:00 4.6 4 Sudeste 6 Este 0 -- -- 96
2020-03-25 08:00:00 1.4 2 Sudeste 5 Oeste 0 -- -- 96
2020-03-25 07:00:00 1 4 Sudeste 6 Este 0 -- -- 94
2020-03-25 06:00:00 1.8 0 Calma 6 Sudoeste 0 -- -- 94
2020-03-25 05:00:00 2 2 Oeste 6 Sur 0 -- -- 95
2020-03-25 04:00:00 1.9 0 Calma 8 Sudeste 0 -- -- 95
2020-03-25 03:00:00 1.4 0 Calma 5 Este 0 -- -- 94
2020-03-25 02:00:00 1.2 3 Oeste 8 Este 0 -- -- 94
2020-03-25 01:00:00 1.7 0 Calma 4 Oeste 0 -- -- 93
2020-03-25 00:00:00 2.8 0 Calma 3 Sudeste 0 -- -- 90
2020-03-24 23:00:00 3.5 0 Calma 10 Sudeste 0 -- -- 90
2020-03-24 22:00:00 3.8 6 Sudeste 13 Sudeste 0 -- -- 88
2020-03-24 21:00:00 5.8 13 Sudeste 15 Sudeste 0 -- -- 82
2020-03-24 20:00:00 6.7 5 Sudeste 21 Este 0 -- -- 77
2020-03-24 19:00:00 8.1 18 Sudeste 29 Este 0 -- -- 71
2020-03-24 18:00:00 9 23 Este 34 Este 0 -- -- 64
2020-03-24 17:00:00 9 27 Este 36 Este 0 -- -- 70
2020-03-24 16:00:00 9.3 27 Este 39 Este 0 -- -- 68
2020-03-24 15:00:00 9.3 30 Este 40 Este 0 -- -- 67
2020-03-24 14:00:00 8.9 26 Este 40 Este 0 -- -- 71
2020-03-24 13:00:00 8.8 33 Este 42 Este 0 -- -- 70
2020-03-24 12:00:00 8.7 33 Este 44 Este 0 -- -- 74
2020-03-24 11:00:00 7.7 30 Este 39 Este 0 -- -- 79
2020-03-24 10:00:00 7.2 24 Este 33 Este 0 -- -- 87
2020-03-24 09:00:00 6.1 23 Este 32 Este 0 -- -- 90
2020-03-24 08:00:00 6.1 15 Este 25 Este 0 -- -- 90
2020-03-24 07:00:00 6.1 20 Este 28 Este 0 -- -- 91
2020-03-24 06:00:00 6.2 19 Este 31 Este 0 -- -- 92
2020-03-24 05:00:00 6.3 24 Este 32 Este 0 -- -- 94
2020-03-24 04:00:00 6.5 24 Este 32 Este 0 -- -- 93
2020-03-24 03:00:00 6.4 20 Este 31 Sudeste 0 -- -- 93
2020-03-24 02:00:00 6.6 23 Este 34 Este 0 -- -- 92
2020-03-24 01:00:00 6.8 17 Este 37 Este 0 -- -- 93
2020-03-24 00:00:00 6.8 13 Este 30 Este 0 -- -- 94
2020-03-23 23:00:00 6.8 20 Este 34 Este 0 -- -- 92
2020-03-23 22:00:00 7 10 Este 18 Este 0 -- -- 93
2020-03-23 21:00:00 7.2 19 Este 32 Este 0 -- -- 89
2020-03-23 20:00:00 8.3 19 Este 34 Este 0 -- -- 83
2020-03-23 19:00:00 8.6 21 Este 44 Este 0 -- -- 80
2020-03-23 18:00:00 9.2 30 Este 40 Sudeste 0 -- -- 77
2020-03-23 17:00:00 9.7 22 Este 36 Este 0 -- -- 75
2020-03-23 16:00:00 9.3 31 Este 41 Este 0 -- -- 77
2020-03-23 15:00:00 9.2 35 Este 44 Este 0 -- -- 76
2020-03-23 14:00:00 9.1 24 Sudeste 35 Sudeste 0 -- -- 81
2020-03-23 13:00:00 8.8 23 Este 35 Este 0 -- -- 80
2020-03-23 12:00:00 9 27 Este 42 Este 0 -- -- 76
2020-03-23 11:00:00 8 29 Este 40 Este 0 -- -- 79
2020-03-23 10:00:00 7.6 29 Este 40 Este 0 -- -- 85
2020-03-23 09:00:00 6.8 27 Este 35 Este 0 -- -- 89
2020-03-23 08:00:00 5.9 14 Este 24 Este 0 -- -- 93
2020-03-23 07:00:00 5.7 15 Este 27 Este 0 -- -- 94
2020-03-23 06:00:00 5.1 13 Este 32 Este 0 -- -- 94
2020-03-23 05:00:00 5.8 18 Este 26 Este 0 -- -- 93
2020-03-23 04:00:00 5.8 14 Este 22 Este 0 -- -- 92
2020-03-23 03:00:00 5.4 4 Este 9 Este 0 -- -- 92
2020-03-23 02:00:00 5.6 5 Sudeste 11 Este 0 -- -- 90
2020-03-23 01:00:00 5.8 8 Este 13 Este 0 -- -- 89
2020-03-23 00:00:00 5.9 5 Este 10 Este 0 -- -- 86
2020-03-22 23:00:00 5.9 6 Este 12 Este 0 -- -- 85
2020-03-22 22:00:00 6.2 0 Calma 14 Este 0 -- -- 84
2020-03-22 21:00:00 6.8 9 Este 15 Este 0 -- -- 81
2020-03-22 20:00:00 7.5 9 Este 27 Este 0 -- -- 77
2020-03-22 19:00:00 8.8 25 Este 44 Este 0 -- -- 69
2020-03-22 18:00:00 10.2 32 Este 44 Sudeste 0 -- -- 64
2020-03-22 17:00:00 10.7 32 Este 49 Este 0 -- -- 59
2020-03-22 16:00:00 11 30 Este 46 Este 0 -- -- 59
2020-03-22 15:00:00 11.3 27 Este 40 Sudeste 0 -- -- 58
2020-03-22 14:00:00 9.6 19 Este 33 Este 0 -- -- 68
2020-03-22 13:00:00 10.2 20 Este 34 Este 0 -- -- 68
2020-03-22 12:00:00 9 14 Este 22 Este 0 -- -- 80
2020-03-22 11:00:00 7.4 2 Este 5 Sudeste 0 -- -- 94
2020-03-22 10:00:00 6.1 0 Calma 5 Este 0 -- -- 98
2020-03-22 09:00:00 5.3 2 Este 4 Sudeste 0 -- -- 98
2020-03-22 08:00:00 4.9 3 Sudeste 6 Sudeste 0.2 -- -- 98
2020-03-22 07:00:00 4.7 0 Calma 3 Sudeste 0 -- -- 97
2020-03-22 06:00:00 4.7 2 Sudeste 4 Este 0.4 -- -- 97
2020-03-22 05:00:00 4.7 0 Calma 9 Este 0.2 -- -- 97
2020-03-22 04:00:00 4.8 3 Sudeste 6 Sudeste 1 -- -- 95
2020-03-22 03:00:00 5 3 Sudeste 12 Sur 0 -- -- 94
2020-03-22 02:00:00 5 10 Sur 16 Sur 0 -- -- 94
2020-03-22 01:00:00 5.4 9 Sur 15 Sur 0.2 -- -- 95
2020-03-22 00:00:00 5.6 9 Sudeste 17 Sur 0 -- -- 94
2020-03-21 23:00:00 5.8 6 Sur 22 Sur 0 -- -- 95
2020-03-21 22:00:00 6.1 15 Sur 22 Sur 0 -- -- 94
2020-03-21 21:00:00 6.2 13 Sur 28 Sur 0 -- -- 94
2020-03-21 20:00:00 7.5 14 Sur 18 Sur 0 -- -- 90
2020-03-21 19:00:00 7.7 12 Sur 18 Sur 0 -- -- 89
2020-03-21 18:00:00 8.2 12 Sur 16 Sur 0 -- -- 86
2020-03-21 17:00:00 8.1 10 Sur 20 Sur 0 -- -- 85
2020-03-21 16:00:00 8.5 13 Sur 23 Sudoeste 0 -- -- 82
2020-03-21 15:00:00 9 15 Sur 22 Sudoeste 0 -- -- 77
2020-03-21 14:00:00 9.1 13 Sudeste 26 Sur 0 -- -- 77
2020-03-21 13:00:00 8.5 18 Sudeste 29 Sudeste 0 -- -- 76
2020-03-21 12:00:00 8.3 21 Sudeste 33 Sur 0 -- -- 78
2020-03-21 11:00:00 7.5 19 Sudeste 30 Este 0 -- -- 84
2020-03-21 10:00:00 7.1 21 Este 27 Sudeste 0 -- -- 85
2020-03-21 09:00:00 7.1 15 Sudeste 24 Sudeste 0 -- -- 82
2020-03-21 08:00:00 6.5 13 Sudeste 19 Sur 0 -- -- 86
2020-03-21 07:00:00 6 13 Sur 18 Sur 0 -- -- 91
2020-03-21 06:00:00 6.2 12 Sur 23 Sur 0 -- -- 91
2020-03-21 05:00:00 6.4 11 Sur 20 Sur 0 -- -- 91
2020-03-21 04:00:00 6.6 14 Sur 22 Sudeste 0 -- -- 93
2020-03-21 03:00:00 6.4 17 Sudeste 26 Este 0 -- -- 93
2020-03-21 02:00:00 6.6 15 Este 28 Este 0 -- -- 92
2020-03-21 01:00:00 7.3 24 Este 32 Este 0 -- -- 91
2020-03-21 00:00:00 8 14 Este 23 Este 0 -- -- 88
2020-03-20 23:00:00 7.9 6 Sudeste 15 Sur 0 -- -- 85
2020-03-20 22:00:00 7.7 12 Sudeste 15 Sudeste 0 -- -- 86
2020-03-20 21:00:00 7.4 9 Sudeste 17 Sudoeste 0 -- -- 84
2020-03-20 20:00:00 7.9 12 Sur 24 Sudoeste 0 -- -- 80
2020-03-20 19:00:00 8.7 19 Sudoeste 26 Sudoeste 0 -- -- 76
2020-03-20 18:00:00 9.8 17 Sudoeste 26 Sudoeste 0 -- -- 75
2020-03-20 17:00:00 10.2 19 Sudoeste 27 Sur 0 -- -- 75
2020-03-20 16:00:00 9.7 18 Sur 31 Sur 0 -- -- 75
2020-03-20 15:00:00 10 18 Sur 29 Sur 0 -- -- 75
2020-03-20 14:00:00 9.3 18 Sur 29 Sudoeste 0 -- -- 77
2020-03-20 13:00:00 9.2 17 Sudoeste 24 Sur 0 -- -- 77
2020-03-20 12:00:00 8.7 17 Sur 28 Sur 0 -- -- 81
2020-03-20 11:00:00 8.3 18 Sur 28 Sur 0 -- -- 82
2020-03-20 10:00:00 7.2 18 Sur 23 Sur 0 -- -- 89
2020-03-20 09:00:00 6.5 14 Sur 20 Sur 0 -- -- 91
2020-03-20 08:00:00 6.1 13 Sur 19 Sur 0 -- -- 91
2020-03-20 07:00:00 6 12 Sudeste 24 Sudeste 0 -- -- 91
2020-03-20 06:00:00 6.3 15 Sur 23 Sur 0 -- -- 92
2020-03-20 05:00:00 6.5 15 Sur 21 Sur 0 -- -- 93
2020-03-20 04:00:00 6.7 9 Sudeste 21 Sudeste 0.4 -- -- 94
2020-03-20 03:00:00 6.8 13 Sudeste 19 Sudeste 0 -- -- 93
2020-03-20 02:00:00 6.4 9 Sudeste 15 Sudeste 0 -- -- 94
2020-03-20 01:00:00 6.2 14 Sudeste 15 Sudeste 0 -- -- 92
2020-03-20 00:00:00 6.2 9 Sudeste 27 Sudeste 0 -- -- 91
2020-03-19 23:00:00 7 17 Sudeste 21 Sudeste 0 -- -- 87
2020-03-19 22:00:00 7.6 14 Sudeste 18 Sudeste 0 -- -- 81
2020-03-19 21:00:00 8.3 9 Sudeste 25 Este 0 -- -- 80
2020-03-19 20:00:00 9.9 19 Este 31 Este 0 -- -- 75
2020-03-19 19:00:00 11.7 22 Sudeste 31 Este 0 -- -- 64
2020-03-19 18:00:00 13.1 22 Este 31 Este 0 -- -- 58
2020-03-19 17:00:00 13.9 17 Sudeste 26 Este 0 -- -- 57
2020-03-19 16:00:00 13.7 16 Sudeste 31 Este 0 -- -- 59
2020-03-19 15:00:00 13.6 18 Este 31 Este 0 -- -- 59
2020-03-19 14:00:00 13.5 14 Sudeste 21 Sudeste 0 -- -- 61
2020-03-19 13:00:00 12.2 12 Sudeste 27 Este 0 -- -- 60
2020-03-19 12:00:00 10.9 17 Sudeste 31 Sudeste 0 -- -- 59
2020-03-19 11:00:00 9.4 13 Sudeste 20 Sudeste 0 -- -- 79
2020-03-19 10:00:00 6.7 9 Sudeste 12 Sudeste 0 -- -- 100
2020-03-19 09:00:00 4.7 8 Sudeste 16 Sudeste 0 -- -- 100
2020-03-19 08:00:00 4.4 12 Sudeste 15 Sudeste 0 -- -- 100
2020-03-19 07:00:00 5 11 Sudeste 14 Sudeste 0 -- -- 99
2020-03-19 06:00:00 5.3 5 Sudeste 13 Este 0 -- -- 100
2020-03-19 05:00:00 5.7 8 Este 14 Este 0 -- -- 99
2020-03-19 04:00:00 6.4 7 Sudeste 13 Sudeste 0 -- -- 99
2020-03-19 03:00:00 7 11 Sudeste 20 Sudeste 0 -- -- 99
2020-03-19 02:00:00 7.2 15 Sudeste 21 Este 0 -- -- 98
2020-03-19 01:00:00 6.8 9 Sudeste 10 Este 0 -- -- 96
2020-03-19 00:00:00 7 0 Calma 8 Este 0 -- -- 94
2020-03-18 23:00:00 8 0 Calma 5 Sur 0 -- -- 90
2020-03-18 22:00:00 9.1 2 Sudeste 6 Sudeste 0 -- -- 87
2020-03-18 21:00:00 9.5 0 Calma 10 Sudeste 0 -- -- 85
2020-03-18 20:00:00 10.2 5 Sudeste 17 Este 0 -- -- 81
2020-03-18 19:00:00 11.5 13 Este 21 Este 0 -- -- 77
2020-03-18 18:00:00 12.7 16 Este 27 Este 0 -- -- 71
2020-03-18 17:00:00 13 18 Este 24 Este 0 -- -- 69
2020-03-18 16:00:00 12.9 18 Este 28 Este 0 -- -- 67
2020-03-18 15:00:00 14 14 Este 21 Este 0 -- -- 63
2020-03-18 14:00:00 13.4 11 Este 26 Este 0 -- -- 67
2020-03-18 13:00:00 12.4 17 Sudeste 26 Este 0 -- -- 68
2020-03-18 12:00:00 11.3 18 Este 27 Este 0 -- -- 73
2020-03-18 11:00:00 9.3 14 Este 23 Este 0 -- -- 84
2020-03-18 10:00:00 8 8 Este 14 Este 0 -- -- 92
2020-03-18 09:00:00 6.6 6 Este 10 Este 0 -- -- 97
2020-03-18 08:00:00 6.3 6 Sudeste 14 Este 0 -- -- 97
2020-03-18 07:00:00 6.5 7 Este 14 Este 0 -- -- 96
2020-03-18 06:00:00 6.5 10 Este 19 Este 0 -- -- 96
2020-03-18 05:00:00 6.7 15 Este 21 Este 0 -- -- 95
2020-03-18 04:00:00 6.9 9 Este 20 Este 0 -- -- 95
2020-03-18 03:00:00 7.1 11 Este 20 Este 0 -- -- 95
2020-03-18 02:00:00 7.2 21 Este 30 Este 0 -- -- 95
2020-03-18 01:00:00 7.3 12 Este 24 Este 0 -- -- 95
2020-03-18 00:00:00 7.6 16 Este 32 Este 0 -- -- 95
2020-03-17 23:00:00 7.9 16 Este 27 Este 0 -- -- 95
2020-03-17 22:00:00 8.2 15 Este 33 Este 0 -- -- 95
2020-03-17 21:00:00 8.3 25 Este 42 Este 0 -- -- 96
2020-03-17 20:00:00 8.2 28 Este 41 Este 0 -- -- 98
2020-03-17 19:00:00 8.2 26 Este 42 Este 0 -- -- 98
2020-03-17 18:00:00 8.5 30 Este 40 Este 0 -- -- 96
2020-03-17 17:00:00 9 24 Este 33 Este 0 -- -- 96
2020-03-17 16:00:00 8.7 31 Sudeste 42 Este 0 -- -- 99
2020-03-17 15:00:00 8.3 32 Este 52 Este 0 -- -- 98
2020-03-17 14:00:00 8 37 Este 51 Este 0.2 -- -- 99
2020-03-17 13:00:00 7.4 28 Este 44 Este 0 -- -- 98
2020-03-17 12:00:00 6.9 26 Este 39 Este 0 -- -- 99
2020-03-17 11:00:00 6.2 8 Este 17 Este 0 -- -- 99
2020-03-17 10:00:00 5.7 6 Este 22 Este 0.2 -- -- 99
2020-03-17 09:00:00 5.4 17 Este 30 Este 0.4 -- -- 98
2020-03-17 08:00:00 5.2 23 Este 36 Este 0.2 -- -- 98
2020-03-17 07:00:00 5.1 24 Este 37 Este 1 -- -- 98
2020-03-17 06:00:00 5 19 Este 44 Este 1.8 -- -- 98
2020-03-17 05:00:00 5 32 Este 47 Este 0 -- -- 97
2020-03-17 04:00:00 5.1 36 Este 66 Este 0 -- -- 96
2020-03-17 03:00:00 5.1 49 Este 63 Este 0 -- -- 96
2020-03-17 02:00:00 4.8 41 Este 60 Este 0 -- -- 96
2020-03-17 01:00:00 4.9 44 Este 58 Nordeste 0 -- -- 94
2020-03-17 00:00:00 4.5 32 Nordeste 60 Este 0 -- -- 95
2020-03-16 23:00:00 4.6 41 Este 54 Este 0.2 -- -- 96
2020-03-16 22:00:00 3.8 32 Este 47 Este 1 -- -- 98
2020-03-16 21:00:00 2.1 10 Sudeste 21 Sudeste 1 -- -- 98
2020-03-16 20:00:00 2.4 19 Este 30 Este 2 -- -- 98
2020-03-16 19:00:00 1.5 20 Este 27 Este 3.4 -- -- 99
2020-03-16 18:00:00 0.5 2 Norte 5 Noroeste 1.2 -- -- 98
2020-03-16 17:00:00 0.4 2 Oeste 4 Sur 0.2 -- -- 97
2020-03-16 16:00:00 1.5 2 Sudeste 18 Nordeste 1 -- -- 97
2020-03-16 15:00:00 1.6 12 Este 29 Este 1.6 -- -- 97
2020-03-16 14:00:00 1.2 27 Este 55 Este 2 -- -- 96
2020-03-16 13:00:00 1.5 42 Este 53 Este 3.2 -- -- 96
2020-03-16 12:00:00 0.8 27 Nordeste 39 Nordeste 1.6 -- -- 98
2020-03-16 11:00:00 0.5 16 Este 28 Este 1 -- -- 98
2020-03-16 10:00:00 0.4 4 Norte 14 Nordeste 0 -- -- 98
2020-03-16 09:00:00 0.5 6 Nordeste 18 Nordeste 0 -- -- 98
2020-03-16 08:00:00 0.1 0 Calma -- -- 0 -- -- 98
2020-03-16 07:00:00 0.2 0 Calma 9 Norte 0 -- -- 97
2020-03-16 06:00:00 1.3 6 Norte 23 Noroeste 1.4 -- -- 96
2020-03-16 05:00:00 4 5 Nordeste 8 Este 3 -- -- 96
2020-03-16 04:00:00 4 3 Oeste 14 Oeste 3.4 -- -- 95
2020-03-16 03:00:00 4 5 Oeste 22 Oeste 2.4 -- -- 94
2020-03-16 02:00:00 4.8 6 Noroeste 24 Noroeste 7 -- -- 94
2020-03-16 01:00:00 5.5 19 Noroeste 29 Oeste 3 -- -- 91
2020-03-16 00:00:00 7.2 7 Este 28 Sur 0 -- -- 90
2020-03-15 23:00:00 6.7 19 Sudeste 26 Sudeste 0 -- -- 89
2020-03-15 22:00:00 6.9 6 Sur 34 Sudoeste 1.6 -- -- 89
2020-03-15 21:00:00 7.3 21 Sudoeste 32 Sudoeste 4.2 -- -- 83
2020-03-15 20:00:00 9.6 23 Oeste 55 Oeste 1.2 -- -- 76
2020-03-15 19:00:00 14.3 27 Sudoeste 58 Sudoeste 0 -- -- 61
2020-03-15 18:00:00 15.1 41 Sudoeste 59 Sudoeste 0 -- -- 54
2020-03-15 17:00:00 16.6 31 Sudoeste 52 Sudoeste 0 -- -- 48
2020-03-15 16:00:00 17 32 Sudoeste 48 Sudoeste 0 -- -- 48
2020-03-15 15:00:00 16.8 31 Sudoeste 47 Sudoeste 0 -- -- 53
2020-03-15 14:00:00 16 26 Sudoeste 42 Sudoeste 0 -- -- 59
2020-03-15 13:00:00 15.1 25 Sudoeste 35 Sur 0 -- -- 66
2020-03-15 12:00:00 15 21 Sur 32 Sudoeste 0 -- -- 65
2020-03-15 11:00:00 13.4 21 Sudoeste 32 Sur 0 -- -- 71
2020-03-15 10:00:00 11.9 24 Sur 32 Sur 0 -- -- 74
2020-03-15 09:00:00 10.3 19 Sur 27 Sur 0 -- -- 82
2020-03-15 08:00:00 5.7 5 Sur 8 Sur 0 -- -- 86
2020-03-15 07:00:00 4.4 5 Sudeste 18 Sur 0 -- -- 79
2020-03-15 06:00:00 1.8 7 Este 10 Este 0 -- -- 77
2020-03-15 05:00:00 1.4 4 Sudeste 9 Sudeste 0 -- -- 76
2020-03-15 04:00:00 2 2 Este 8 Este 0 -- -- 74
2020-03-15 03:00:00 2 3 Sudeste 9 Sudeste 0 -- -- 73
2020-03-15 02:00:00 2.7 0 Calma 5 Oeste 0 -- -- 69
2020-03-15 01:00:00 3.7 0 Calma 3 Oeste 0 -- -- 65
2020-03-15 00:00:00 4.6 2 Oeste 4 Noroeste 0 -- -- 63
2020-03-14 23:00:00 6.4 0 Calma 6 Este 0 -- -- 55
2020-03-14 22:00:00 7.7 0 Calma 10 Este 0 -- -- 52
2020-03-14 21:00:00 9.7 3 Sudeste 5 Sudeste 0 -- -- 44
2020-03-14 20:00:00 12.3 4 Sudeste 8 Noroeste 0 -- -- 37
2020-03-14 19:00:00 15.8 5 Noroeste 10 Norte 0 -- -- 30
2020-03-14 18:00:00 16.6 5 Norte 17 Noroeste 0 -- -- 30
2020-03-14 17:00:00 17.4 4 Noroeste 17 Nordeste 0 -- -- 30
2020-03-14 16:00:00 16.9 8 Norte 20 Nordeste 0 -- -- 28
2020-03-14 15:00:00 16.8 3 Noroeste 14 Noroeste 0 -- -- 34
2020-03-14 14:00:00 14.7 5 Oeste 15 Nordeste 0 -- -- 39
2020-03-14 13:00:00 13.3 7 Norte 16 Norte 0 -- -- 56
2020-03-14 12:00:00 11 9 Norte 15 Norte 0 -- -- 76
2020-03-14 11:00:00 7 5 Norte 13 Nordeste 0 -- -- 98
2020-03-14 10:00:00 4.8 9 Nordeste 12 Nordeste 0 -- -- 98
2020-03-14 09:00:00 3.7 3 Este 5 Nordeste 0 -- -- 98
2020-03-14 08:00:00 1.3 2 Nordeste 3 Nordeste 0 -- -- 99
2020-03-14 07:00:00 1 2 Sudeste 5 Sudoeste 0 -- -- 97
2020-03-14 06:00:00 1.7 3 Oeste 4 Nordeste 0 -- -- 95
2020-03-14 05:00:00 2.5 0 Calma 5 Oeste 0 -- -- 95
2020-03-14 04:00:00 2.9 2 Oeste 5 Sudeste 0 -- -- 94
2020-03-14 03:00:00 3.4 3 Este 5 Noroeste 0 -- -- 91
2020-03-14 02:00:00 4.3 2 Este 4 Sudeste 0 -- -- 89
2020-03-14 01:00:00 5.1 3 Noroeste 5 Noroeste 0 -- -- 88
2020-03-14 00:00:00 6.7 0 Calma 5 Noroeste 0 -- -- 82
2020-03-13 23:00:00 7.6 0 Calma 8 Este 0 -- -- 80
2020-03-13 22:00:00 8.8 6 Este 15 Sudeste 0 -- -- 77
2020-03-13 21:00:00 9.6 14 Este 28 Este 0 -- -- 74
2020-03-13 20:00:00 11.2 21 Este 29 Este 0 -- -- 69
2020-03-13 19:00:00 13.4 23 Este 31 Sudeste 0 -- -- 64
2020-03-13 18:00:00 15.2 17 Este 23 Este 0 -- -- 62
2020-03-13 17:00:00 16 21 Este 27 Este 0 -- -- 59
2020-03-13 16:00:00 16.6 13 Este 28 Este 0 -- -- 58
2020-03-13 15:00:00 15.9 16 Este 28 Este 0 -- -- 60
2020-03-13 14:00:00 15 15 Este 29 Este 0 -- -- 62
2020-03-13 13:00:00 14.1 20 Este 31 Este 0 -- -- 65
2020-03-13 12:00:00 13.5 23 Este 32 Este 0 -- -- 64
2020-03-13 11:00:00 12.2 21 Este 32 Este 0 -- -- 69
2020-03-13 10:00:00 9.8 22 Este 29 Este 0 -- -- 77
2020-03-13 09:00:00 7.8 14 Este 21 Este 0 -- -- 89
2020-03-13 08:00:00 7.1 7 Nordeste 27 Este 0 -- -- 94
2020-03-13 07:00:00 7.6 15 Este 22 Este 0 -- -- 95
2020-03-13 06:00:00 6.8 3 Sudeste 6 Este 0 -- -- 93
2020-03-13 05:00:00 6.6 4 Nordeste 9 Sudoeste 0 -- -- 92
2020-03-13 04:00:00 7.5 8 Este 20 Este 0 -- -- 92
2020-03-13 03:00:00 8.2 9 Este 16 Este 0 -- -- 89
2020-03-13 02:00:00 9.2 0 Calma 9 Este 0 -- -- 83
2020-03-13 01:00:00 9.8 3 Este 12 Este 0 -- -- 79
2020-03-13 00:00:00 11.7 4 Sudeste 12 Este 0 -- -- 66
2020-03-12 23:00:00 13 4 Sudeste 12 Oeste 0 -- -- 59
2020-03-12 22:00:00 14.5 9 Oeste 19 Oeste 0 -- -- 54
2020-03-12 21:00:00 16.1 14 Oeste 22 Sudoeste 0 -- -- 46
2020-03-12 20:00:00 18.1 21 Sudoeste 27 Sudoeste 0 -- -- 42
2020-03-12 19:00:00 19.4 17 Sudoeste 29 Sudoeste 0 -- -- 39
2020-03-12 18:00:00 21 22 Sudoeste 33 Sudoeste 0 -- -- 34
2020-03-12 17:00:00 22 22 Sudoeste 32 Sudoeste 0 -- -- 33
2020-03-12 16:00:00 23.2 26 Sudoeste 46 Sudoeste 0 -- -- 32
2020-03-12 15:00:00 23.3 27 Sudoeste 42 Sudoeste 0 -- -- 31
2020-03-12 14:00:00 22.8 31 Sudoeste 44 Sudoeste 0 -- -- 33
2020-03-12 13:00:00 22.7 27 Sudoeste 42 Sur 0 -- -- 36
2020-03-12 12:00:00 21.6 29 Sur 40 Sur 0 -- -- 44
2020-03-12 11:00:00 20.1 22 Sudoeste 33 Sudoeste 0 -- -- 44
2020-03-12 10:00:00 17.2 8 Sur 16 Sur 0 -- -- 58
2020-03-12 09:00:00 11.3 7 Este 14 Este 0 -- -- 77
2020-03-12 08:00:00 8.9 9 Sudeste 10 Sudeste 0 -- -- 79
2020-03-12 07:00:00 9.6 3 Este 19 Sur 0 -- -- 77
2020-03-12 06:00:00 9.1 4 Este 10 Este 0 -- -- 78
2020-03-12 05:00:00 9.2 5 Este 9 Sudeste 0 -- -- 78
2020-03-12 04:00:00 8 6 Este 10 Este 0 -- -- 82
2020-03-12 03:00:00 8 0 Calma 5 Sudeste 0 -- -- 81
2020-03-12 02:00:00 8.5 3 Este 6 Este 0 -- -- 79
2020-03-12 01:00:00 9.1 3 Sudeste 5 Sudeste 0 -- -- 77
2020-03-12 00:00:00 10 4 Sudeste 7 Sudeste 0 -- -- 74
2020-03-11 23:00:00 11 4 Oeste 6 Sudeste 0 -- -- 67
2020-03-11 22:00:00 13.1 0 Calma 5 Este 0 -- -- 61
2020-03-11 21:00:00 15.6 0 Calma 7 Sudoeste 0 -- -- 52
2020-03-11 20:00:00 17.9 4 Oeste 19 Noroeste 0 -- -- 47
2020-03-11 19:00:00 20 11 Oeste 25 Oeste 0 -- -- 39
2020-03-11 18:00:00 21.6 19 Noroeste 35 Oeste 0 -- -- 36
2020-03-11 17:00:00 22.6 25 Oeste 37 Oeste 0 -- -- 32
2020-03-11 16:00:00 22.9 24 Oeste 39 Oeste 0 -- -- 32
2020-03-11 15:00:00 22.8 23 Noroeste 36 Oeste 0 -- -- 32
2020-03-11 14:00:00 21.7 24 Noroeste 34 Oeste 0 -- -- 36
2020-03-11 13:00:00 19.8 10 Este 16 Este 0 -- -- 46
2020-03-11 12:00:00 18.6 9 Norte 14 Norte 0 -- -- 51
2020-03-11 11:00:00 15.9 2 Oeste 6 Este 0 -- -- 57
2020-03-11 10:00:00 12.1 0 Calma 5 Sudeste 0 -- -- 74
2020-03-11 09:00:00 6.7 4 Sudeste 5 Sudeste 0 -- -- 86
2020-03-11 08:00:00 3.7 3 Sudeste 4 Sudeste 0 -- -- 88
2020-03-11 07:00:00 4.3 2 Sur 8 Este 0 -- -- 87
2020-03-11 06:00:00 4.6 2 Sudeste 5 Este 0 -- -- 88
2020-03-11 05:00:00 6.1 0 Calma 8 Sudeste 0 -- -- 83
2020-03-11 04:00:00 6.3 2 Sudeste 21 Noroeste 0 -- -- 82
2020-03-11 03:00:00 7 3 Noroeste 17 Oeste 0 -- -- 82
2020-03-11 02:00:00 7.6 3 Sudeste 8 Sur 0 -- -- 77
2020-03-11 01:00:00 8.8 3 Sudeste 6 Sudeste 0 -- -- 71
2020-03-11 00:00:00 8.3 2 Sudeste 6 Oeste 0 -- -- 72
2020-03-10 23:00:00 9.3 4 Oeste 7 Sudoeste 0 -- -- 68
2020-03-10 22:00:00 10.4 4 Oeste 8 Sudoeste 0 -- -- 64
2020-03-10 21:00:00 12.4 5 Sudoeste 9 Sudoeste 0 -- -- 57
2020-03-10 20:00:00 14.4 3 Oeste 16 Oeste 0 -- -- 50
2020-03-10 19:00:00 16.9 14 Oeste 31 Oeste 0 -- -- 44
2020-03-10 18:00:00 18.5 19 Noroeste 31 Noroeste 0 -- -- 40
2020-03-10 17:00:00 19.3 21 Oeste 28 Oeste 0 -- -- 41
2020-03-10 16:00:00 18.5 19 Noroeste 31 Noroeste 0 -- -- 43
2020-03-10 15:00:00 17.9 24 Oeste 31 Oeste 0 -- -- 44
2020-03-10 14:00:00 17.2 15 Noroeste 30 Noroeste 0 -- -- 47
2020-03-10 13:00:00 15.9 15 Noroeste 26 Noroeste 0 -- -- 49
2020-03-10 12:00:00 14.3 18 Noroeste 35 Noroeste 0 -- -- 50
2020-03-10 11:00:00 11.5 15 Noroeste 24 Noroeste 0 -- -- 59
2020-03-10 10:00:00 8.6 13 Norte 17 Norte 0 -- -- 68
2020-03-10 09:00:00 5.1 3 Este 6 Sudeste 0 -- -- 78
2020-03-10 08:00:00 4.1 3 Sudeste 12 Noroeste 0 -- -- 77
2020-03-10 07:00:00 4.4 7 Noroeste 13 Noroeste 0 -- -- 75
2020-03-10 06:00:00 5.3 5 Norte 17 Noroeste 0 -- -- 70
2020-03-10 05:00:00 6.5 11 Noroeste 19 Noroeste 0 -- -- 66
2020-03-10 04:00:00 5.8 8 Noroeste 21 Noroeste 0 -- -- 68
2020-03-10 03:00:00 5.3 14 Noroeste 20 Oeste 0 -- -- 68
2020-03-10 02:00:00 5.5 14 Oeste 23 Oeste 0 -- -- 64
2020-03-10 01:00:00 6.5 10 Noroeste 33 Noroeste 0 -- -- 59
2020-03-10 00:00:00 6.6 24 Noroeste 43 Noroeste 0 -- -- 63
2020-03-09 23:00:00 7.1 28 Noroeste 41 Noroeste 0 -- -- 63
2020-03-09 22:00:00 6.9 22 Noroeste 30 Noroeste 0 -- -- 64
2020-03-09 21:00:00 8.1 12 Norte 21 Noroeste 0 -- -- 59
2020-03-09 20:00:00 8.3 17 Noroeste 26 Noroeste 0 -- -- 58
2020-03-09 19:00:00 9.3 17 Noroeste 46 Oeste 0 -- -- 53
2020-03-09 18:00:00 10.6 33 Noroeste 51 Oeste 0 -- -- 50
2020-03-09 17:00:00 11.2 31 Noroeste 51 Oeste 0 -- -- 48
2020-03-09 16:00:00 11.1 32 Noroeste 55 Noroeste 0 -- -- 51
2020-03-09 15:00:00 10.3 37 Noroeste 56 Oeste 0 -- -- 55
2020-03-09 14:00:00 9.4 28 Noroeste 50 Noroeste 0 -- -- 58
2020-03-09 13:00:00 8.5 35 Noroeste 48 Noroeste 0 -- -- 59
2020-03-09 12:00:00 6.8 26 Noroeste 44 Noroeste 0 -- -- 69
2020-03-09 11:00:00 6 21 Noroeste 32 Noroeste 0 -- -- 76
2020-03-09 10:00:00 4.4 21 Noroeste 33 Noroeste 0 -- -- 85
2020-03-09 09:00:00 4.2 15 Noroeste 33 Noroeste 0 -- -- 86
2020-03-09 08:00:00 3.7 23 Noroeste 45 Noroeste 0 -- -- 86
2020-03-09 07:00:00 4.2 35 Noroeste 49 Noroeste 0 -- -- 84
2020-03-09 06:00:00 4.6 30 Noroeste 46 Noroeste 0 -- -- 84
2020-03-09 05:00:00 4.9 32 Noroeste 48 Noroeste 0 -- -- 84
2020-03-09 04:00:00 5.7 31 Noroeste 55 Oeste 0 -- -- 83
2020-03-09 03:00:00 6.5 32 Noroeste 51 Noroeste 0 -- -- 83
2020-03-09 02:00:00 6.9 31 Noroeste 46 Oeste 0 -- -- 86
2020-03-09 01:00:00 7.5 31 Oeste 50 Oeste 0 -- -- 85
2020-03-09 00:00:00 8.3 34 Oeste 47 Oeste 0 -- -- 83
2020-03-08 23:00:00 8.5 31 Oeste 44 Oeste 0 -- -- 81
2020-03-08 22:00:00 8.3 24 Oeste 33 Noroeste 0 -- -- 80
2020-03-08 21:00:00 8 20 Oeste 34 Oeste 0 -- -- 76
2020-03-08 20:00:00 8.4 20 Oeste 30 Oeste 0 -- -- 61
2020-03-08 19:00:00 10.2 20 Oeste 34 Oeste 0 -- -- 49
2020-03-08 18:00:00 12.4 23 Oeste 36 Oeste 0 -- -- 45
2020-03-08 17:00:00 11.7 23 Oeste 45 Noroeste 0 -- -- 51
2020-03-08 16:00:00 11.8 25 Noroeste 43 Oeste 0 -- -- 52
2020-03-08 15:00:00 12.6 22 Noroeste 36 Noroeste 0 -- -- 48
2020-03-08 14:00:00 11.9 20 Noroeste 30 Noroeste 0 -- -- 52
2020-03-08 13:00:00 10.1 20 Noroeste 37 Oeste 0 -- -- 59
2020-03-08 12:00:00 9.1 31 Noroeste 47 Oeste 0 -- -- 60
2020-03-08 11:00:00 8.5 26 Noroeste 41 Noroeste 0 -- -- 67
2020-03-08 10:00:00 7.1 33 Noroeste 42 Noroeste 0 -- -- 76
2020-03-08 09:00:00 3.3 3 Oeste 11 Sudoeste 0 -- -- 84
2020-03-08 08:00:00 0.6 6 Oeste 13 Oeste 0 -- -- 88
2020-03-08 07:00:00 -0.3 9 Oeste 14 Oeste 0 -- -- 85
2020-03-08 06:00:00 -1.2 3 Este 6 Oeste 0 -- -- 89
2020-03-08 05:00:00 -0.8 0 Calma 14 Oeste 0 -- -- 91
2020-03-08 04:00:00 -0.4 2 Oeste 8 Oeste 0 -- -- 93
2020-03-08 03:00:00 -0.5 3 Oeste 6 Oeste 0 -- -- 92
2020-03-08 02:00:00 0.3 0 Calma 6 Este 0 -- -- 91
2020-03-08 01:00:00 0.8 2 Sudeste 5 Sudeste 0 -- -- 89
2020-03-08 00:00:00 1.4 0 Calma 6 Oeste 0 -- -- 88
2020-03-07 23:00:00 2.2 3 Oeste 9 Oeste 0 -- -- 87
2020-03-07 22:00:00 3.3 8 Oeste 12 Oeste 0 -- -- 84
2020-03-07 21:00:00 4.8 9 Oeste 19 Oeste 0 -- -- 79
2020-03-07 20:00:00 5.9 12 Oeste 28 Oeste 0 -- -- 75
2020-03-07 19:00:00 7.9 23 Noroeste 45 Noroeste 0 -- -- 67
2020-03-07 18:00:00 9.2 28 Noroeste 52 Noroeste 0 -- -- 62
2020-03-07 17:00:00 9.4 37 Oeste 50 Oeste 0 -- -- 64
2020-03-07 16:00:00 9.2 32 Noroeste 43 Oeste 0 -- -- 64
2020-03-07 15:00:00 10 26 Noroeste 41 Noroeste 0 -- -- 63
2020-03-07 14:00:00 8.7 24 Noroeste 40 Noroeste 0 -- -- 67
2020-03-07 13:00:00 7.9 30 Noroeste 46 Noroeste 0 -- -- 69
2020-03-07 12:00:00 6.8 25 Noroeste 48 Noroeste 0 -- -- 74
2020-03-07 11:00:00 5.4 34 Noroeste 49 Noroeste 0 -- -- 76
2020-03-07 10:00:00 4.1 32 Noroeste 48 Noroeste 0 -- -- 79
2020-03-07 09:00:00 2.5 36 Noroeste 51 Noroeste 0 -- -- 81
2020-03-07 08:00:00 0.7 22 Oeste 41 Noroeste 0 -- -- 79
2020-03-07 07:00:00 1.1 31 Noroeste 44 Oeste 0 -- -- 73
2020-03-07 06:00:00 1.1 26 Noroeste 48 Oeste 0 -- -- 73
2020-03-07 05:00:00 1.2 32 Noroeste 51 Noroeste 0 -- -- 76
2020-03-07 04:00:00 1.1 27 Noroeste 37 Oeste 0 -- -- 77
2020-03-07 03:00:00 0.9 31 Oeste 41 Noroeste 0 -- -- 82
2020-03-07 02:00:00 0.7 26 Noroeste 36 Noroeste 0 -- -- 83
2020-03-07 01:00:00 1.2 18 Noroeste 35 Noroeste 0 -- -- 79
2020-03-07 00:00:00 1.8 20 Noroeste 33 Noroeste 0 -- -- 76
2020-03-06 23:00:00 1.9 16 Noroeste 38 Noroeste 0 -- -- 73
2020-03-06 22:00:00 2.4 28 Noroeste 43 Noroeste 0 -- -- 70
2020-03-06 21:00:00 2.8 28 Noroeste 50 Noroeste 0 -- -- 69
2020-03-06 20:00:00 3.3 19 Noroeste 38 Noroeste 0 -- -- 67
2020-03-06 19:00:00 4.3 28 Noroeste 60 Noroeste 0 -- -- 60
2020-03-06 18:00:00 5.3 39 Noroeste 61 Noroeste 0 -- -- 53
2020-03-06 17:00:00 5.2 33 Noroeste 60 Noroeste 0 -- -- 53
2020-03-06 16:00:00 5.1 35 Noroeste 56 Noroeste 0 -- -- 60
2020-03-06 15:00:00 5.3 31 Noroeste 48 Norte 0 -- -- 57
2020-03-06 14:00:00 4.3 28 Norte 63 Noroeste 0 -- -- 76
2020-03-06 13:00:00 4.8 49 Noroeste 79 Oeste 0 -- -- 62
2020-03-06 12:00:00 4.8 52 Oeste 76 Noroeste 0 -- -- 68
2020-03-06 11:00:00 4 54 Noroeste 74 Oeste 0 -- -- 71
2020-03-06 10:00:00 3.7 44 Noroeste 69 Noroeste 0 -- -- 75
2020-03-06 09:00:00 2.8 42 Noroeste 73 Oeste 0 -- -- 82
2020-03-06 08:00:00 2.9 49 Oeste 69 Oeste 0 -- -- 80
2020-03-06 07:00:00 3.3 51 Oeste 71 Oeste 0 -- -- 81
2020-03-06 06:00:00 3.4 46 Oeste 60 Oeste 0 -- -- 86
2020-03-06 05:00:00 3.4 46 Oeste 59 Oeste 0.2 -- -- 87
2020-03-06 04:00:00 3.6 32 Oeste 55 Oeste 0 -- -- 81
2020-03-06 03:00:00 3.3 38 Oeste 57 Oeste 0 -- -- 83
2020-03-06 02:00:00 3.7 29 Oeste 53 Oeste 0 -- -- 81
2020-03-06 01:00:00 3.9 37 Oeste 59 Oeste 0 -- -- 78
2020-03-06 00:00:00 4.4 34 Oeste 45 Oeste 0 -- -- 78
2020-03-05 23:00:00 5.6 26 Oeste 37 Oeste 0 -- -- 77
2020-03-05 22:00:00 6.4 23 Oeste 40 Noroeste 0 -- -- 81
2020-03-05 21:00:00 6.7 25 Noroeste 46 Oeste 0 -- -- 80
2020-03-05 20:00:00 6.9 32 Oeste 54 Oeste 0 -- -- 76
2020-03-05 19:00:00 7.5 23 Oeste 47 Oeste 0 -- -- 76
2020-03-05 18:00:00 9 36 Oeste 62 Oeste 0 -- -- 67
2020-03-05 17:00:00 9.4 43 Oeste 76 Oeste 0 -- -- 64
2020-03-05 16:00:00 9.8 57 Oeste 77 Noroeste 0 -- -- 61
2020-03-05 15:00:00 9.1 53 Oeste 77 Oeste 0 -- -- 64
2020-03-05 14:00:00 8.5 57 Oeste 82 Oeste 0 -- -- 67
2020-03-05 13:00:00 8.6 62 Oeste 93 Oeste 0 -- -- 68
2020-03-05 12:00:00 6.8 52 Oeste 94 Oeste 1 -- -- 86
2020-03-05 11:00:00 8.6 32 Sudoeste 45 Sudoeste 0.8 -- -- 94
2020-03-05 10:00:00 8.3 30 Sudoeste 53 Sudoeste 0 -- -- 92
2020-03-05 09:00:00 8.1 41 Sudoeste 57 Sudoeste 0 -- -- 91
2020-03-05 08:00:00 7 22 Sudoeste 38 Sudoeste 0 -- -- 92
2020-03-05 07:00:00 6.6 24 Sudoeste 48 Sudoeste 0 -- -- 95
2020-03-05 06:00:00 6.4 36 Sudoeste 47 Sudoeste 0 -- -- 94
2020-03-05 05:00:00 7 30 Sudoeste 36 Sur 0 -- -- 84
2020-03-05 04:00:00 8.1 23 Sudoeste 32 Sudoeste 0 -- -- 79
2020-03-05 03:00:00 8.5 18 Sudoeste 27 Sudoeste 0 -- -- 78
2020-03-05 02:00:00 9.4 16 Sudoeste 37 Oeste 0 -- -- 74
2020-03-05 01:00:00 9 12 Oeste 18 Oeste 0 -- -- 79
2020-03-05 00:00:00 8.6 9 Oeste 19 Oeste 0 -- -- 79
2020-03-04 23:00:00 9 13 Oeste 36 Oeste 0 -- -- 81
2020-03-04 22:00:00 9.9 15 Oeste 41 Oeste 0 -- -- 78
2020-03-04 21:00:00 10.4 27 Oeste 42 Oeste 0 -- -- 75
2020-03-04 20:00:00 10.1 20 Oeste 38 Oeste 0 -- -- 75
2020-03-04 19:00:00 10.4 28 Oeste 40 Noroeste 0 -- -- 77
2020-03-04 18:00:00 10.9 25 Oeste 47 Oeste 0 -- -- 72
2020-03-04 17:00:00 11.3 29 Oeste 44 Oeste 0 -- -- 72
2020-03-04 16:00:00 10.9 32 Oeste 50 Oeste 0 -- -- 73
2020-03-04 15:00:00 10.9 31 Oeste 47 Oeste 0 -- -- 73
2020-03-04 14:00:00 10.5 33 Oeste 52 Oeste 0 -- -- 75
2020-03-04 13:00:00 10.6 35 Oeste 52 Oeste 0 -- -- 81
2020-03-04 12:00:00 10.2 30 Oeste 53 Oeste 0.2 -- -- 85
2020-03-04 11:00:00 10.2 31 Oeste 60 Oeste 0 -- -- 78
2020-03-04 10:00:00 10.1 37 Oeste 53 Oeste 0 -- -- 74
2020-03-04 09:00:00 9.7 37 Oeste 50 Oeste 0 -- -- 82
2020-03-04 08:00:00 9.7 29 Oeste 54 Oeste 0 -- -- 86
2020-03-04 07:00:00 10 37 Oeste 57 Oeste 0 -- -- 87
2020-03-04 06:00:00 10.3 35 Oeste 53 Oeste 0 -- -- 87
2020-03-04 05:00:00 10.1 32 Oeste 50 Oeste 0 -- -- 90
2020-03-04 04:00:00 9.9 30 Oeste 49 Oeste 0 -- -- 92
2020-03-04 03:00:00 9.7 34 Noroeste 56 Oeste 0 -- -- 91
2020-03-04 02:00:00 9.7 48 Oeste 72 Oeste 0 -- -- 87
2020-03-04 01:00:00 9.7 44 Oeste 63 Oeste 0 -- -- 84
2020-03-04 00:00:00 9.4 48 Oeste 68 Oeste 0 -- -- 78
2020-03-03 23:00:00 10.2 51 Oeste 68 Noroeste 0 -- -- 80
2020-03-03 22:00:00 10.6 45 Oeste 60 Oeste 0 -- -- 82
2020-03-03 21:00:00 10.9 40 Oeste 62 Oeste 0 -- -- 78
2020-03-03 20:00:00 11.5 42 Oeste 58 Oeste 0 -- -- 74
2020-03-03 19:00:00 12.1 41 Oeste 69 Oeste 0 -- -- 75
2020-03-03 18:00:00 12.8 45 Oeste 76 Oeste 0 -- -- 73
2020-03-03 17:00:00 13.1 51 Oeste -- -- -- -- -- 71
2020-03-03 16:00:00 -- -- -- -- -- -- -- -- --
2020-03-03 15:00:00 -- -- -- -- -- -- -- -- --
2020-03-03 14:00:00 -- -- -- -- -- -- -- -- --
2020-03-03 13:00:00 -- -- -- -- -- -- -- -- --
2020-03-03 12:00:00 -- -- -- -- -- -- -- -- --
2020-03-03 11:00:00 -- -- -- -- -- -- -- -- --
2020-03-03 10:00:00 -- -- -- -- -- -- -- -- --
2020-03-03 09:00:00 -- -- -- -- -- -- -- -- --
2020-03-03 08:00:00 -- -- -- -- -- -- -- -- --
2020-03-03 07:00:00 -- -- -- -- -- -- -- -- --
2020-03-03 06:00:00 -- -- -- -- -- -- -- -- --
2020-03-03 05:00:00 -- -- -- -- -- -- -- -- --
2020-03-03 04:00:00 -- -- -- -- -- -- -- -- --
2020-03-03 03:00:00 -- -- -- -- -- -- -- -- --
2020-03-03 02:00:00 -- -- -- -- -- -- -- -- --
2020-03-03 01:00:00 -- -- -- -- -- -- -- -- --
2020-03-03 00:00:00 -- -- -- -- -- -- -- -- --
2020-03-02 23:00:00 -- -- -- -- -- -- -- -- --
2020-03-02 22:00:00 -- -- -- -- -- -- -- -- --
2020-03-02 21:00:00 -- -- -- -- -- -- -- -- --
2020-03-02 20:00:00 -- -- -- -- -- -- -- -- --
2020-03-02 19:00:00 -- -- -- -- -- -- -- -- --
2020-03-02 18:00:00 -- -- -- -- -- -- -- -- --
2020-03-02 17:00:00 -- -- -- -- -- -- -- -- --
2020-03-02 16:00:00 -- -- -- -- -- -- -- -- --
2020-03-02 15:00:00 6.6 58 Oeste 81 Oeste 0 -- -- 63
2020-03-02 14:00:00 5.7 50 Oeste 72 Oeste 0 -- -- 72
2020-03-02 13:00:00 5.3 48 Noroeste 72 Oeste 0 -- -- 76
2020-03-02 12:00:00 4.9 54 Oeste 82 Noroeste 0.4 -- -- 79
2020-03-02 11:00:00 5.1 52 Oeste 76 Oeste 0 -- -- 79
2020-03-02 10:00:00 5.1 52 Oeste 76 Oeste 0 -- -- 82
2020-03-02 09:00:00 5 45 Oeste 84 Noroeste 1.2 -- -- 85
2020-03-02 08:00:00 5.7 62 Oeste 102 Oeste 0.2 -- -- 80
2020-03-02 07:00:00 6.8 62 Oeste 112 Noroeste 0.4 -- -- 85
2020-03-02 06:00:00 9.2 57 Oeste 113 Oeste 0.2 -- -- 81
2020-03-02 05:00:00 9.7 47 Sudoeste 78 Sudoeste 0 -- -- 79
2020-03-02 04:00:00 9.8 42 Sudoeste 78 Oeste 0 -- -- 80
2020-03-02 03:00:00 9.1 40 Sudoeste 67 Sudoeste 0.2 -- -- 90
2020-03-02 02:00:00 8.9 51 Sudoeste 77 Sudoeste 1.2 -- -- 90
2020-03-02 01:00:00 8.9 45 Sudoeste 78 Sudoeste 2 -- -- 91
2020-03-02 00:00:00 9.2 50 Sudoeste 69 Sudoeste 0.4 -- -- 91
2020-03-01 23:00:00 9 28 Sudoeste 57 Sudoeste 0.6 -- -- 92
2020-03-01 22:00:00 9 32 Sudoeste 51 Sudoeste 0 -- -- 89
2020-03-01 21:00:00 9.2 30 Sudoeste 54 Sudoeste 0 -- -- 86
2020-03-01 20:00:00 9.3 31 Sudoeste 54 Sudoeste 0 -- -- 85
2020-03-01 19:00:00 9.4 32 Sudoeste 60 Oeste 0 -- -- 83
2020-03-01 18:00:00 10.3 37 Oeste 57 Sudoeste 0 -- -- 71
2020-03-01 17:00:00 10.3 41 Sudoeste 58 Sudoeste 0 -- -- 74
2020-03-01 16:00:00 11.4 35 Sudoeste 57 Oeste 0 -- -- 68
2020-03-01 15:00:00 12.2 48 Oeste 66 Oeste 0 -- -- 53
2020-03-01 14:00:00 12.1 35 Oeste 67 Oeste 0 -- -- 62
2020-03-01 13:00:00 11.6 37 Oeste 70 Oeste 0 -- -- 63
2020-03-01 12:00:00 9.9 45 Oeste 64 Oeste 0 -- -- 69
2020-03-01 11:00:00 6.6 28 Sudoeste 55 Sudoeste 0 -- -- 91
2020-03-01 10:00:00 6.4 37 Sudoeste 50 Sudoeste 0 -- -- 86
2020-03-01 09:00:00 5.8 26 Sudoeste 33 Sudoeste 0 -- -- 86
2020-03-01 08:00:00 6.2 15 Sudoeste 41 Oeste 0 -- -- 80
2020-03-01 07:00:00 6.7 33 Oeste 51 Oeste 0 -- -- 75
2020-03-01 06:00:00 6.5 28 Oeste 44 Oeste 0 -- -- 78
2020-03-01 05:00:00 6 18 Noroeste 45 Oeste 0 -- -- 80
2020-03-01 04:00:00 6.3 31 Oeste 50 Oeste 0 -- -- 74
2020-03-01 03:00:00 6.8 19 Oeste 53 Oeste 0 -- -- 67
2020-03-01 02:00:00 6.9 30 Oeste 46 Oeste 0 -- -- 67
2020-03-01 01:00:00 7 29 Oeste 44 Oeste 0 -- -- 60
2020-03-01 00:00:00 6.4 22 Oeste 46 Noroeste 0 -- -- 67
2020-02-29 23:00:00 6.6 36 Noroeste 52 Oeste 0 -- -- 69
2020-02-29 22:00:00 6.8 31 Noroeste 47 Oeste 0 -- -- 71
2020-02-29 21:00:00 8 31 Oeste 60 Oeste 0 -- -- 63
2020-02-29 20:00:00 8.5 44 Oeste 60 Noroeste 0 -- -- 64
2020-02-29 19:00:00 9.6 40 Oeste 54 Noroeste 0 -- -- 70
2020-02-29 18:00:00 10.4 27 Oeste 40 Sudoeste 0 -- -- 77
2020-02-29 17:00:00 10.4 36 Sudoeste 56 Sudoeste 0 -- -- 76
2020-02-29 16:00:00 10.5 42 Sudoeste 63 Sudoeste 0 -- -- 74
2020-02-29 15:00:00 10.1 45 Sudoeste 65 Sudoeste 0 -- -- 74
2020-02-29 14:00:00 8.1 51 Sudoeste 65 Sudoeste 0 -- -- 84
2020-02-29 13:00:00 7.6 43 Sudoeste 58 Sudoeste 0 -- -- 82
2020-02-29 12:00:00 8.1 42 Sudoeste 55 Sudoeste 0 -- -- 72
2020-02-29 11:00:00 7.9 41 Sudoeste 57 Sudoeste 0 -- -- 69
2020-02-29 10:00:00 7.8 38 Sudoeste 52 Sudoeste 0 -- -- 68
2020-02-29 09:00:00 6 37 Sudoeste 59 Sudoeste 0 -- -- 76
2020-02-29 08:00:00 5.3 47 Sudoeste 68 Sudoeste 0 -- -- 77
2020-02-29 07:00:00 5.9 44 Sudoeste 55 Sudoeste 0 -- -- 73
2020-02-29 06:00:00 6.2 35 Sudoeste 48 Sudoeste 0 -- -- 69
2020-02-29 05:00:00 6.7 31 Sur 42 Sudoeste 0 -- -- 66
2020-02-29 04:00:00 6.4 17 Este 27 Sudoeste 0 -- -- 66
2020-02-29 03:00:00 7.3 17 Sur 31 Sudoeste 0 -- -- 62
2020-02-29 02:00:00 7.6 14 Sudoeste 26 Sudoeste 0 -- -- 60
2020-02-29 01:00:00 6.4 4 Oeste 18 Sudoeste 0 -- -- 63
2020-02-29 00:00:00 9.1 12 Sudoeste 36 Sudoeste 0 -- -- 55
2020-02-28 23:00:00 9.9 29 Sudoeste 34 Sudoeste 0 -- -- 53
2020-02-28 22:00:00 10.1 24 Sudoeste 33 Sudoeste 0 -- -- 53
2020-02-28 21:00:00 10.9 24 Sudoeste 38 Sudoeste 0 -- -- 51
2020-02-28 20:00:00 11.3 15 Sudoeste 30 Sudoeste 0 -- -- 51
2020-02-28 19:00:00 12.8 17 Sudoeste 32 Sudoeste 0 -- -- 46
2020-02-28 18:00:00 14.7 23 Sudoeste 33 Sur 0 -- -- 40
2020-02-28 17:00:00 16 21 Sur 32 Sur 0 -- -- 41
2020-02-28 16:00:00 16.8 14 Sur 33 Sur 0 -- -- 39
2020-02-28 15:00:00 16.6 7 Sur 15 Sur 0 -- -- 38
2020-02-28 14:00:00 15 8 Norte 18 Nordeste 0 -- -- 36
2020-02-28 13:00:00 14.8 5 Sudoeste 19 Oeste 0 -- -- 36
2020-02-28 12:00:00 12.6 4 Noroeste 15 Sudeste 0 -- -- 41
2020-02-28 11:00:00 9.7 7 Este 12 Sudeste 0 -- -- 57
2020-02-28 10:00:00 6.6 5 Sudeste 8 Sudeste 0 -- -- 76
2020-02-28 09:00:00 3.5 0 Calma 6 Sur 0 -- -- 86
2020-02-28 08:00:00 2.5 5 Noroeste 9 Norte 0 -- -- 86
2020-02-28 07:00:00 4.1 2 Noroeste 17 Noroeste 0 -- -- 79
2020-02-28 06:00:00 4.6 6 Norte 15 Noroeste 0 -- -- 78
2020-02-28 05:00:00 4.4 10 Noroeste 19 Oeste 0 -- -- 77
2020-02-28 04:00:00 5.6 4 Oeste 9 Oeste 0 -- -- 72
2020-02-28 03:00:00 6.3 5 Oeste 24 Noroeste 0 -- -- 71
2020-02-28 02:00:00 7 19 Noroeste 44 Noroeste 0 -- -- 70
2020-02-28 01:00:00 7.8 30 Noroeste 42 Noroeste 0 -- -- 69
2020-02-28 00:00:00 8.5 35 Noroeste 46 Oeste 0 -- -- 65